createdAt,value
2018-08-03T00:00:43.089Z,21.10
2018-08-03T00:03:10.343Z,21.10
2018-08-03T00:05:37.574Z,20.80
2018-08-03T00:10:32.119Z,21.00
2018-08-03T00:12:59.391Z,21.00
2018-08-03T00:17:54.664Z,21.00
2018-08-03T00:20:21.948Z,21.00
2018-08-03T00:22:49.188Z,21.10
2018-08-03T00:25:16.423Z,20.90
2018-08-03T00:30:10.915Z,20.90
2018-08-03T00:32:38.142Z,20.90
2018-08-03T00:35:05.421Z,20.80
2018-08-03T00:37:32.683Z,20.90
2018-08-03T00:40:00.007Z,20.70
2018-08-03T00:42:27.262Z,20.60
2018-08-03T00:44:54.479Z,20.80
2018-08-03T00:47:21.712Z,20.80
2018-08-03T00:49:48.927Z,20.80
2018-08-03T00:52:16.174Z,21.10
2018-08-03T00:54:43.418Z,20.60
2018-08-03T00:57:10.687Z,21.00
2018-08-03T00:59:37.890Z,21.10
2018-08-03T01:02:05.247Z,20.60
2018-08-03T01:04:32.443Z,20.60
2018-08-03T01:06:59.707Z,20.60
2018-08-03T01:09:26.910Z,20.50
2018-08-03T01:11:54.163Z,20.60
2018-08-03T01:14:21.360Z,20.50
2018-08-03T01:16:48.611Z,20.50
2018-08-03T01:19:15.838Z,20.50
2018-08-03T01:24:11.575Z,20.40
2018-08-03T01:26:38.928Z,20.40
2018-08-03T01:29:06.154Z,20.30
2018-08-03T01:31:33.370Z,20.30
2018-08-03T01:34:00.618Z,19.70
2018-08-03T01:36:27.827Z,20.20
2018-08-03T01:38:55.151Z,21.20
2018-08-03T01:41:22.443Z,20.30
2018-08-03T01:43:49.667Z,20.20
2018-08-03T01:46:16.880Z,20.20
2018-08-03T01:51:11.346Z,20.20
2018-08-03T01:53:38.736Z,20.20
2018-08-03T01:56:05.954Z,20.10
2018-08-03T01:58:33.186Z,20.10
2018-08-03T02:01:00.435Z,20.30
2018-08-03T02:03:27.647Z,20.10
2018-08-03T02:05:54.889Z,20.10
2018-08-03T02:08:22.115Z,20.10
2018-08-03T02:10:49.327Z,19.80
2018-08-03T02:13:16.535Z,20.10
2018-08-03T02:15:43.762Z,20.20
2018-08-03T02:20:38.286Z,20.10
2018-08-03T02:23:05.514Z,20.70
2018-08-03T02:25:32.731Z,20.10
2018-08-03T02:27:59.955Z,21.10
2018-08-03T02:30:27.184Z,20.00
2018-08-03T02:32:54.421Z,19.90
2018-08-03T02:35:21.666Z,19.90
2018-08-03T02:37:48.899Z,19.90
2018-08-03T02:40:16.126Z,19.80
2018-08-03T02:42:43.353Z,19.90
2018-08-03T02:45:10.608Z,19.80
2018-08-03T02:47:37.847Z,19.40
2018-08-03T02:50:05.104Z,19.80
2018-08-03T02:52:32.315Z,19.80
2018-08-03T02:54:59.598Z,18.90
2018-08-03T02:57:26.826Z,19.70
2018-08-03T02:59:54.078Z,19.80
2018-08-03T03:02:21.308Z,19.40
2018-08-03T03:04:48.555Z,19.00
2018-08-03T03:07:16.391Z,19.70
2018-08-03T03:09:43.624Z,19.70
2018-08-03T03:12:11.014Z,19.70
2018-08-03T03:14:38.356Z,19.70
2018-08-03T03:17:05.594Z,19.40
2018-08-03T03:22:00.079Z,19.70
2018-08-03T03:24:27.324Z,19.70
2018-08-03T03:26:54.567Z,19.60
2018-08-03T03:29:21.780Z,19.80
2018-08-03T03:31:49.119Z,18.80
2018-08-03T03:34:16.377Z,19.60
2018-08-03T03:36:43.590Z,19.60
2018-08-03T03:39:12.818Z,19.50
2018-08-03T03:41:40.078Z,19.50
2018-08-03T03:44:07.375Z,19.50
2018-08-03T03:46:35.051Z,19.50
2018-08-03T03:49:02.287Z,20.10
2018-08-03T03:51:29.549Z,20.00
2018-08-03T03:53:56.771Z,19.40
2018-08-03T03:56:24.036Z,19.40
2018-08-03T03:58:51.546Z,19.30
2018-08-03T04:01:18.803Z,18.10
2018-08-03T04:03:46.131Z,19.30
2018-08-03T04:08:40.578Z,19.40
2018-08-03T04:11:07.823Z,19.40
2018-08-03T04:13:35.052Z,19.40
2018-08-03T04:18:29.522Z,19.50
2018-08-03T04:20:56.767Z,20.30
2018-08-03T04:23:24.011Z,19.50
2018-08-03T04:28:18.470Z,19.60
2018-08-03T04:30:45.731Z,19.20
2018-08-03T04:33:13.473Z,18.50
2018-08-03T04:35:40.795Z,19.60
2018-08-03T04:38:08.139Z,19.60
2018-08-03T04:40:35.376Z,19.60
2018-08-03T04:45:29.876Z,19.70
2018-08-03T04:47:57.136Z,19.70
2018-08-03T04:50:24.396Z,19.70
2018-08-03T04:52:51.732Z,21.00
2018-08-03T04:55:18.958Z,19.90
2018-08-03T04:57:46.381Z,20.00
2018-08-03T05:00:13.751Z,20.00
2018-08-03T05:02:40.987Z,20.10
2018-08-03T05:05:08.691Z,20.10
2018-08-03T05:07:35.906Z,20.20
2018-08-03T05:12:30.411Z,20.30
2018-08-03T05:14:57.627Z,19.50
2018-08-03T05:17:24.863Z,20.40
2018-08-03T05:19:52.058Z,20.40
2018-08-03T05:22:19.318Z,20.40
2018-08-03T05:24:46.541Z,20.40
2018-08-03T05:27:13.892Z,20.50
2018-08-03T05:29:41.134Z,20.60
2018-08-03T05:32:08.344Z,20.70
2018-08-03T05:34:35.549Z,20.80
2018-08-03T05:37:02.946Z,20.90
2018-08-03T05:39:30.155Z,20.90
2018-08-03T05:41:57.406Z,21.00
2018-08-03T05:44:25.620Z,21.00
2018-08-03T05:49:20.044Z,21.20
2018-08-03T05:51:47.281Z,20.50
2018-08-03T05:54:14.463Z,21.40
2018-08-03T05:59:08.922Z,21.60
2018-08-03T06:01:36.213Z,21.60
2018-08-03T06:04:03.487Z,21.60
2018-08-03T06:06:30.701Z,21.80
2018-08-03T06:08:57.951Z,21.80
2018-08-03T06:11:25.168Z,21.90
2018-08-03T06:13:52.405Z,22.00
2018-08-03T06:16:19.630Z,22.00
2018-08-03T06:18:46.846Z,22.10
2018-08-03T06:21:14.079Z,21.90
2018-08-03T06:23:41.308Z,22.80
2018-08-03T06:26:08.629Z,22.60
2018-08-03T06:28:36.065Z,22.70
2018-08-03T06:31:03.224Z,22.80
2018-08-03T06:33:30.463Z,22.90
2018-08-03T06:35:57.694Z,22.40
2018-08-03T06:38:24.913Z,23.20
2018-08-03T06:40:52.150Z,23.30
2018-08-03T06:43:19.371Z,23.40
2018-08-03T06:45:46.602Z,23.50
2018-08-03T06:48:13.835Z,23.60
2018-08-03T06:50:41.026Z,23.90
2018-08-03T06:53:08.292Z,24.90
2018-08-03T06:55:35.791Z,25.00
2018-08-03T06:58:03.042Z,23.90
2018-08-03T07:02:57.504Z,24.70
2018-08-03T07:07:52.408Z,24.90
2018-08-03T07:10:19.625Z,24.90
2018-08-03T07:12:46.922Z,25.10
2018-08-03T07:15:14.126Z,25.30
2018-08-03T07:17:41.354Z,25.50
2018-08-03T07:20:08.654Z,25.70
2018-08-03T07:22:35.834Z,25.90
2018-08-03T07:25:03.102Z,26.20
2018-08-03T07:27:30.787Z,26.60
2018-08-03T07:29:58.346Z,26.90
2018-08-03T07:32:25.656Z,27.20
2018-08-03T07:34:52.866Z,27.40
2018-08-03T07:37:20.074Z,27.50
2018-08-03T07:39:47.282Z,27.60
2018-08-03T07:44:43.822Z,27.80
2018-08-03T07:47:11.593Z,28.10
2018-08-03T07:49:38.847Z,29.80
2018-08-03T07:52:06.971Z,28.70
2018-08-03T07:57:01.828Z,28.80
2018-08-03T07:59:29.432Z,29.40
2018-08-03T08:01:56.699Z,29.40
2018-08-03T08:04:23.916Z,29.50
2018-08-03T08:09:18.400Z,30.30
2018-08-03T08:11:45.927Z,29.80
2018-08-03T08:14:13.263Z,30.20
2018-08-03T08:16:40.475Z,30.50
2018-08-03T08:19:07.727Z,30.60
2018-08-03T08:21:35.380Z,31.20
2018-08-03T08:28:57.124Z,32.40
2018-08-03T08:31:24.365Z,32.50
2018-08-03T08:36:20.615Z,33.30
2018-08-03T08:38:48.055Z,33.40
2018-08-03T08:41:15.292Z,33.30
2018-08-03T08:43:42.763Z,34.00
2018-08-03T08:48:37.515Z,34.70
2018-08-03T08:51:04.773Z,35.20
2018-08-03T08:53:32.047Z,35.70
2018-08-03T08:55:59.251Z,35.60
2018-08-03T08:58:26.475Z,35.50
2018-08-03T09:00:54.870Z,35.80
2018-08-03T09:03:22.163Z,36.10
2018-08-03T09:05:49.368Z,36.80
2018-08-03T09:08:16.628Z,37.10
2018-08-03T09:10:43.862Z,38.20
2018-08-03T09:13:11.124Z,39.40
2018-08-03T09:15:38.372Z,40.30
2018-08-03T09:18:05.842Z,40.50
2018-08-03T09:20:33.161Z,41.00
2018-08-03T09:23:00.406Z,40.30
2018-08-03T09:25:27.632Z,40.90
2018-08-03T09:27:54.960Z,42.00
2018-08-03T09:30:22.266Z,42.20
2018-08-03T09:32:49.507Z,42.30
2018-08-03T09:35:16.825Z,42.50
2018-08-03T09:40:11.999Z,43.00
2018-08-03T09:42:39.226Z,43.30
2018-08-03T09:45:06.559Z,43.70
2018-08-03T09:47:33.762Z,43.70
2018-08-03T09:50:01.037Z,43.60
2018-08-03T09:52:28.327Z,43.80
2018-08-03T09:54:55.694Z,43.90
2018-08-03T09:57:22.902Z,44.30
2018-08-03T09:59:50.093Z,44.50
2018-08-03T10:02:17.296Z,45.00
2018-08-03T10:04:44.514Z,45.10
2018-08-03T10:07:11.752Z,45.40
2018-08-03T10:09:39.055Z,45.90
2018-08-03T10:12:06.271Z,46.20
2018-08-03T10:14:33.499Z,46.60
2018-08-03T10:17:00.734Z,46.90
2018-08-03T10:19:28.020Z,46.60
2018-08-03T10:21:55.339Z,46.90
2018-08-03T10:24:22.570Z,47.30
2018-08-03T10:26:49.853Z,47.40
2018-08-03T10:31:50.367Z,47.80
2018-08-03T10:34:17.664Z,47.90
2018-08-03T10:36:44.988Z,47.80
2018-08-03T10:39:12.210Z,47.80
2018-08-03T10:41:40.063Z,47.50
2018-08-03T10:46:35.061Z,48.00
2018-08-03T10:49:02.377Z,48.00
2018-08-03T10:51:29.701Z,48.00
2018-08-03T10:56:24.083Z,47.70
2018-08-03T10:58:51.463Z,47.20
2018-08-03T11:01:18.715Z,47.20
2018-08-03T11:03:45.917Z,47.70
2018-08-03T11:06:13.119Z,48.40
2018-08-03T11:08:40.314Z,49.10
2018-08-03T11:11:07.685Z,49.60
2018-08-03T11:13:35.068Z,49.40
2018-08-03T11:16:02.364Z,47.80
2018-08-03T11:18:29.645Z,47.30
2018-08-03T11:20:56.875Z,47.70
2018-08-03T11:23:24.175Z,48.40
2018-08-03T11:25:51.463Z,49.30
2018-08-03T11:28:18.650Z,49.70
2018-08-03T11:30:45.922Z,50.20
2018-08-03T11:33:13.246Z,49.90
2018-08-03T11:35:40.576Z,47.60
2018-08-03T11:38:07.863Z,47.80
2018-08-03T11:40:35.079Z,48.20
2018-08-03T11:43:02.385Z,47.30
2018-08-03T11:45:29.713Z,45.30
2018-08-03T11:47:56.968Z,44.20
2018-08-03T11:50:24.406Z,44.60
2018-08-03T11:55:18.980Z,45.70
2018-08-03T11:57:46.262Z,46.30
2018-08-03T12:00:13.487Z,46.80
2018-08-03T12:02:40.713Z,47.00
2018-08-03T12:05:07.988Z,45.70
2018-08-03T12:10:02.599Z,42.50
2018-08-03T12:12:29.865Z,42.20
2018-08-03T12:14:57.116Z,43.20
2018-08-03T12:17:24.455Z,44.10
2018-08-03T12:19:51.786Z,44.60
2018-08-03T12:24:46.228Z,43.60
2018-08-03T12:27:13.451Z,42.80
2018-08-03T12:29:40.767Z,42.30
2018-08-03T12:32:08.013Z,41.50
2018-08-03T12:37:02.592Z,39.90
2018-08-03T12:39:29.833Z,38.60
2018-08-03T12:41:57.144Z,37.70
2018-08-03T12:44:24.373Z,37.10
2018-08-03T12:46:51.697Z,36.40
2018-08-03T12:49:18.919Z,36.00
2018-08-03T12:51:46.253Z,35.80
2018-08-03T12:54:13.484Z,35.70
2018-08-03T12:56:40.790Z,35.90
2018-08-03T12:59:07.998Z,36.20
2018-08-03T13:01:35.234Z,36.40
2018-08-03T13:04:02.480Z,36.30
2018-08-03T13:06:29.746Z,36.30
2018-08-03T13:08:57.047Z,36.40
2018-08-03T13:11:24.351Z,36.70
2018-08-03T13:13:51.740Z,36.50
2018-08-03T13:16:19.050Z,36.50
2018-08-03T13:18:46.296Z,36.60
2018-08-03T13:23:53.734Z,36.20
2018-08-03T13:26:21.067Z,35.70
2018-08-03T13:28:48.502Z,35.80
2018-08-03T13:31:15.746Z,35.70
2018-08-03T13:33:43.063Z,35.50
2018-08-03T13:38:37.551Z,35.30
2018-08-03T13:41:04.985Z,35.50
2018-08-03T13:45:59.487Z,35.50
2018-08-03T13:50:54.499Z,36.00
2018-08-03T13:53:21.743Z,35.70
2018-08-03T13:55:48.977Z,35.60
2018-08-03T13:58:16.199Z,35.30
2018-08-03T14:00:43.513Z,36.00
2018-08-03T14:03:10.767Z,36.30
2018-08-03T14:05:37.984Z,36.40
2018-08-03T14:08:05.332Z,36.50
2018-08-03T14:10:32.598Z,36.50
2018-08-03T14:12:59.859Z,36.20
2018-08-03T14:15:27.106Z,36.20
2018-08-03T14:17:54.395Z,36.10
2018-08-03T14:20:21.687Z,36.20
2018-08-03T14:22:49.318Z,36.20
2018-08-03T14:25:16.539Z,36.10
2018-08-03T14:27:43.800Z,35.80
2018-08-03T14:30:11.085Z,35.60
2018-08-03T14:32:38.294Z,35.50
2018-08-03T14:35:05.532Z,35.50
2018-08-03T14:37:33.847Z,35.50
2018-08-03T14:40:01.075Z,35.40
2018-08-03T14:42:28.375Z,35.40
2018-08-03T14:44:55.610Z,35.50
2018-08-03T14:47:22.854Z,35.40
2018-08-03T14:49:50.092Z,35.20
2018-08-03T14:52:17.386Z,35.20
2018-08-03T14:57:12.003Z,35.20
2018-08-03T14:59:39.292Z,35.70
2018-08-03T15:02:06.543Z,35.50
2018-08-03T15:04:33.791Z,35.40
2018-08-03T15:07:01.081Z,35.40
2018-08-03T15:11:55.744Z,35.30
2018-08-03T15:14:22.995Z,35.90
2018-08-03T15:16:50.238Z,35.90
2018-08-03T15:24:12.056Z,35.60
2018-08-03T15:26:39.363Z,35.70
2018-08-03T15:29:06.619Z,35.50
2018-08-03T15:31:34.274Z,35.60
2018-08-03T15:34:01.535Z,35.30
2018-08-03T15:36:28.774Z,35.50
2018-08-03T15:43:50.680Z,35.30
2018-08-03T15:48:45.338Z,35.20
2018-08-03T15:51:12.571Z,35.20
2018-08-03T15:56:07.063Z,35.10
2018-08-03T15:58:34.305Z,35.50
2018-08-03T16:01:01.812Z,35.20
2018-08-03T16:05:56.467Z,35.00
2018-08-03T16:08:23.738Z,35.00
2018-08-03T16:10:50.974Z,34.90
2018-08-03T16:15:45.603Z,34.80
2018-08-03T16:23:08.281Z,34.90
2018-08-03T16:28:02.922Z,34.80
2018-08-03T16:30:30.226Z,34.80
2018-08-03T16:32:57.487Z,34.60
2018-08-03T16:35:24.730Z,34.40
2018-08-03T16:37:52.013Z,34.40
2018-08-03T16:40:19.309Z,34.40
2018-08-03T16:42:46.631Z,34.50
2018-08-03T16:45:13.955Z,34.40
2018-08-03T16:50:08.664Z,34.30
2018-08-03T16:52:35.898Z,34.30
2018-08-03T16:55:03.172Z,34.20
2018-08-03T16:57:30.418Z,34.20
2018-08-03T16:59:57.648Z,34.20
2018-08-03T17:02:24.883Z,34.10
2018-08-03T17:04:52.103Z,34.10
2018-08-03T17:07:19.642Z,34.10
2018-08-03T17:09:46.902Z,34.00
2018-08-03T17:12:14.140Z,34.00
2018-08-03T17:14:41.444Z,34.00
2018-08-03T17:19:35.930Z,33.90
2018-08-03T17:22:03.186Z,33.90
2018-08-03T17:24:30.482Z,34.00
2018-08-03T17:26:57.741Z,34.00
2018-08-03T17:29:24.955Z,34.00
2018-08-03T17:31:52.227Z,33.90
2018-08-03T17:34:19.429Z,33.60
2018-08-03T17:36:46.672Z,33.80
2018-08-03T17:39:13.970Z,33.80
2018-08-03T17:41:41.275Z,33.70
2018-08-03T17:44:08.553Z,33.70
2018-08-03T17:46:35.798Z,33.70
2018-08-03T17:49:03.064Z,33.30
2018-08-03T17:58:52.054Z,32.70
2018-08-03T18:01:19.333Z,32.60
2018-08-03T18:03:46.539Z,32.40
2018-08-03T18:11:08.917Z,32.00
2018-08-03T18:13:36.138Z,31.70
2018-08-03T18:16:03.507Z,31.80
2018-08-03T18:18:30.799Z,31.50
2018-08-03T18:20:58.053Z,31.60
2018-08-03T18:23:25.363Z,31.30
2018-08-03T18:25:52.620Z,30.10
2018-08-03T18:28:19.855Z,30.60
2018-08-03T18:30:47.127Z,30.60
2018-08-03T18:33:14.341Z,30.10
2018-08-03T18:38:08.859Z,29.60
2018-08-03T18:40:36.168Z,29.40
2018-08-03T18:43:03.390Z,29.20
2018-08-03T18:45:30.712Z,29.20
2018-08-03T18:47:57.932Z,29.70
2018-08-03T18:50:25.158Z,29.00
2018-08-03T18:52:52.478Z,28.90
2018-08-03T18:55:19.699Z,28.80
2018-08-03T18:57:46.973Z,28.80
2018-08-03T19:00:14.239Z,28.80
2018-08-03T19:02:41.498Z,28.90
2018-08-03T19:05:09.093Z,28.90
2018-08-03T19:10:03.737Z,28.90
2018-08-03T19:12:30.969Z,28.80
2018-08-03T19:14:58.529Z,28.80
2018-08-03T19:17:25.840Z,28.80
2018-08-03T19:19:53.150Z,28.70
2018-08-03T19:22:20.466Z,28.70
2018-08-03T19:24:47.710Z,27.70
2018-08-03T19:27:14.966Z,28.60
2018-08-03T19:29:42.233Z,28.60
2018-08-03T19:32:09.667Z,28.60
2018-08-03T19:34:38.151Z,28.50
2018-08-03T19:37:05.446Z,28.50
2018-08-03T19:39:32.707Z,26.80
2018-08-03T19:42:00.191Z,28.40
2018-08-03T19:44:27.458Z,28.40
2018-08-03T19:46:54.687Z,27.40
2018-08-03T19:49:21.975Z,28.30
2018-08-03T19:51:50.335Z,28.30
2018-08-03T19:54:17.676Z,28.30
2018-08-03T19:59:12.360Z,28.20
2018-08-03T20:01:39.699Z,28.20
2018-08-03T20:04:07.090Z,28.10
2018-08-03T20:06:34.667Z,28.10
2018-08-03T20:09:01.996Z,28.10
2018-08-03T20:11:29.300Z,28.10
2018-08-03T20:13:56.653Z,28.10
2018-08-03T20:16:23.878Z,28.10
2018-08-03T20:23:46.747Z,28.00
2018-08-03T20:26:15.349Z,28.00
2018-08-03T20:28:43.735Z,28.00
2018-08-03T20:31:11.859Z,28.00
2018-08-03T20:33:39.241Z,28.60
2018-08-03T20:38:38.494Z,27.90
2018-08-03T20:41:06.866Z,26.30
2018-08-03T20:43:34.167Z,27.90
2018-08-03T20:46:01.502Z,27.90
2018-08-03T20:48:28.780Z,27.80
2018-08-03T20:50:57.086Z,27.80
2018-08-03T20:53:25.321Z,27.70
2018-08-03T20:55:52.859Z,27.20
2018-08-03T20:58:22.220Z,27.60
2018-08-03T21:00:51.126Z,27.60
2018-08-03T21:03:19.672Z,27.50
2018-08-03T21:05:46.923Z,26.30
2018-08-03T21:08:14.196Z,27.50
2018-08-03T21:10:41.419Z,27.60
2018-08-03T21:13:12.661Z,27.50
2018-08-03T21:15:40.802Z,26.40
2018-08-03T21:18:08.426Z,27.40
2018-08-03T21:20:35.898Z,27.40
2018-08-03T21:23:04.237Z,27.30
2018-08-03T21:25:31.729Z,27.30
2018-08-03T21:30:27.891Z,27.20
2018-08-03T21:32:56.341Z,27.30
2018-08-03T21:35:37.836Z,27.10
2018-08-03T21:38:07.671Z,27.00
2018-08-03T21:40:35.722Z,27.00
2018-08-03T21:43:03.953Z,27.20
2018-08-03T21:45:31.435Z,26.70
2018-08-03T21:47:58.747Z,26.10
2018-08-03T21:50:26.671Z,26.90
2018-08-03T21:52:55.169Z,26.80
2018-08-03T21:55:25.384Z,26.70
2018-08-03T21:57:54.355Z,25.90
2018-08-03T22:00:23.645Z,26.60
2018-08-03T22:02:52.454Z,26.50
2018-08-03T22:05:21.555Z,26.50
2018-08-03T22:07:49.190Z,26.40
2018-08-03T22:10:19.171Z,26.40
2018-08-03T22:12:47.546Z,26.50
2018-08-03T22:15:15.665Z,26.40
2018-08-03T22:17:42.936Z,26.30
2018-08-03T22:20:11.056Z,26.20
2018-08-03T22:22:39.408Z,26.20
2018-08-03T22:25:09.843Z,26.10
2018-08-03T22:27:40.009Z,26.10
2018-08-03T22:32:37.641Z,25.90
2018-08-03T22:35:05.308Z,26.60
2018-08-03T22:42:27.302Z,25.60
2018-08-03T22:44:54.550Z,25.30
2018-08-03T22:47:21.875Z,25.80
2018-08-03T22:49:49.256Z,25.00
2018-08-03T22:52:16.506Z,25.90
2018-08-03T22:54:43.728Z,25.70
2018-08-03T22:57:13.903Z,25.30
2018-08-03T22:59:41.968Z,26.10
2018-08-03T23:02:09.527Z,25.40
2018-08-03T23:04:37.892Z,25.30
2018-08-03T23:09:32.562Z,25.20
2018-08-03T23:11:59.890Z,25.10
2018-08-03T23:14:27.227Z,25.00
2018-08-03T23:16:54.522Z,25.10
2018-08-03T23:19:21.739Z,24.80
2018-08-03T23:21:49.064Z,24.90
2018-08-03T23:26:43.555Z,24.90
2018-08-03T23:29:10.791Z,24.90
2018-08-03T23:31:38.109Z,24.90
2018-08-03T23:34:05.340Z,24.90
2018-08-03T23:36:32.588Z,24.70
2018-08-03T23:38:59.867Z,24.40
2018-08-03T23:41:27.124Z,24.60
2018-08-03T23:43:54.346Z,24.70
2018-08-03T23:46:21.598Z,24.50
2018-08-03T23:48:48.835Z,24.10
2018-08-03T23:51:16.080Z,24.80
2018-08-03T23:53:43.331Z,24.50
2018-08-03T23:56:10.599Z,24.30
2018-08-03T23:58:37.830Z,24.40
